sensor_id;sensor_type;location;lat;lon;timestamp;P1;durP1;ratioP1;P2;durP2;ratioP2
56657;SDS011;42530;52.240;19.354;2022-11-18T00:00:53;50.78;;;41.13;;
56657;SDS011;42530;52.240;19.354;2022-11-18T00:03:19;53.13;;;43.65;;
56657;SDS011;42530;52.240;19.354;2022-11-18T00:05:54;50.03;;;38.22;;
56657;SDS011;42530;52.240;19.354;2022-11-18T00:08:21;46.05;;;38.58;;
56657;SDS011;42530;52.240;19.354;2022-11-18T00:10:47;47.22;;;42.15;;
56657;SDS011;42530;52.240;19.354;2022-11-18T00:13:14;43.20;;;37.42;;
56657;SDS011;42530;52.240;19.354;2022-11-18T00:16:02;45.58;;;40.17;;
56657;SDS011;42530;52.240;19.354;2022-11-18T00:18:30;45.70;;;41.00;;
56657;SDS011;42530;52.240;19.354;2022-11-18T00:21:02;47.08;;;39.17;;
56657;SDS011;42530;52.240;19.354;2022-11-18T00:23:35;48.95;;;40.28;;
56657;SDS011;42530;52.240;19.354;2022-11-18T00:26:02;45.85;;;40.28;;
56657;SDS011;42530;52.240;19.354;2022-11-18T00:28:28;46.90;;;36.92;;
56657;SDS011;42530;52.240;19.354;2022-11-18T00:30:59;45.60;;;39.72;;
56657;SDS011;42530;52.240;19.354;2022-11-18T00:33:28;45.17;;;39.17;;
56657;SDS011;42530;52.240;19.354;2022-11-18T00:35:54;41.38;;;36.92;;
56657;SDS011;42530;52.240;19.354;2022-11-18T00:38:19;40.25;;;35.97;;
56657;SDS011;42530;52.240;19.354;2022-11-18T00:40:45;46.00;;;38.45;;
56657;SDS011;42530;52.240;19.354;2022-11-18T00:43:10;46.58;;;38.42;;
56657;SDS011;42530;52.240;19.354;2022-11-18T00:45:36;46.92;;;36.53;;
56657;SDS011;42530;52.240;19.354;2022-11-18T00:48:02;47.05;;;39.90;;
56657;SDS011;42530;52.240;19.354;2022-11-18T00:50:27;43.58;;;38.28;;
56657;SDS011;42530;52.240;19.354;2022-11-18T00:52:53;45.75;;;40.55;;
56657;SDS011;42530;52.240;19.354;2022-11-18T00:55:18;48.35;;;37.90;;
56657;SDS011;42530;52.240;19.354;2022-11-18T00:57:44;40.22;;;36.05;;
56657;SDS011;42530;52.240;19.354;2022-11-18T01:00:09;43.22;;;37.03;;
56657;SDS011;42530;52.240;19.354;2022-11-18T01:02:35;47.38;;;37.38;;
56657;SDS011;42530;52.240;19.354;2022-11-18T01:05:02;44.28;;;38.55;;
56657;SDS011;42530;52.240;19.354;2022-11-18T01:07:28;44.95;;;34.70;;
56657;SDS011;42530;52.240;19.354;2022-11-18T01:09:53;46.70;;;35.88;;
56657;SDS011;42530;52.240;19.354;2022-11-18T01:12:20;43.75;;;36.63;;
56657;SDS011;42530;52.240;19.354;2022-11-18T01:15:04;41.40;;;36.05;;
56657;SDS011;42530;52.240;19.354;2022-11-18T01:17:30;42.50;;;37.47;;
56657;SDS011;42530;52.240;19.354;2022-11-18T01:19:55;46.80;;;39.28;;
56657;SDS011;42530;52.240;19.354;2022-11-18T01:22:22;49.85;;;37.55;;
56657;SDS011;42530;52.240;19.354;2022-11-18T01:24:47;47.92;;;40.05;;
56657;SDS011;42530;52.240;19.354;2022-11-18T01:27:13;46.28;;;38.97;;
56657;SDS011;42530;52.240;19.354;2022-11-18T01:29:39;47.35;;;37.20;;
56657;SDS011;42530;52.240;19.354;2022-11-18T01:32:04;46.25;;;36.38;;
56657;SDS011;42530;52.240;19.354;2022-11-18T01:34:30;42.55;;;35.20;;
56657;SDS011;42530;52.240;19.354;2022-11-18T01:36:56;41.78;;;35.83;;
56657;SDS011;42530;52.240;19.354;2022-11-18T01:39:22;39.22;;;34.72;;
56657;SDS011;42530;52.240;19.354;2022-11-18T01:41:48;39.40;;;31.35;;
56657;SDS011;42530;52.240;19.354;2022-11-18T01:47:17;40.92;;;35.45;;
56657;SDS011;42530;52.240;19.354;2022-11-18T01:49:43;43.20;;;34.03;;
56657;SDS011;42530;52.240;19.354;2022-11-18T01:52:09;38.60;;;33.13;;
56657;SDS011;42530;52.240;19.354;2022-11-18T01:54:36;40.38;;;32.30;;
56657;SDS011;42530;52.240;19.354;2022-11-18T01:57:10;39.70;;;34.33;;
56657;SDS011;42530;52.240;19.354;2022-11-18T01:59:41;37.30;;;32.53;;
56657;SDS011;42530;52.240;19.354;2022-11-18T02:02:11;43.20;;;35.25;;
56657;SDS011;42530;52.240;19.354;2022-11-18T02:04:40;38.97;;;32.35;;
56657;SDS011;42530;52.240;19.354;2022-11-18T02:07:09;36.78;;;31.95;;
56657;SDS011;42530;52.240;19.354;2022-11-18T02:09:35;41.28;;;34.22;;
56657;SDS011;42530;52.240;19.354;2022-11-18T02:12:02;42.35;;;34.95;;
56657;SDS011;42530;52.240;19.354;2022-11-18T02:14:29;44.45;;;36.75;;
56657;SDS011;42530;52.240;19.354;2022-11-18T02:30:27;44.55;;;33.42;;
56657;SDS011;42530;52.240;19.354;2022-11-18T02:38:07;39.65;;;34.70;;
56657;SDS011;42530;52.240;19.354;2022-11-18T02:40:36;49.25;;;37.85;;
56657;SDS011;42530;52.240;19.354;2022-11-18T02:43:08;40.60;;;33.42;;
56657;SDS011;42530;52.240;19.354;2022-11-18T02:45:47;38.28;;;34.28;;
56657;SDS011;42530;52.240;19.354;2022-11-18T02:48:16;39.88;;;33.42;;
56657;SDS011;42530;52.240;19.354;2022-11-18T02:50:44;37.13;;;32.10;;
56657;SDS011;42530;52.240;19.354;2022-11-18T02:53:14;43.60;;;34.50;;
56657;SDS011;42530;52.240;19.354;2022-11-18T02:55:42;43.67;;;33.05;;
56657;SDS011;42530;52.240;19.354;2022-11-18T02:58:10;38.10;;;31.15;;
56657;SDS011;42530;52.240;19.354;2022-11-18T03:00:39;40.55;;;34.13;;
56657;SDS011;42530;52.240;19.354;2022-11-18T03:12:07;36.47;;;32.65;;
56657;SDS011;42530;52.240;19.354;2022-11-18T03:28:35;33.03;;;28.10;;
56657;SDS011;42530;52.240;19.354;2022-11-18T03:33:35;30.00;;;26.38;;
56657;SDS011;42530;52.240;19.354;2022-11-18T03:36:06;33.63;;;26.25;;
56657;SDS011;42530;52.240;19.354;2022-11-18T03:38:41;31.98;;;27.88;;
56657;SDS011;42530;52.240;19.354;2022-11-18T03:41:11;30.48;;;25.20;;
56657;SDS011;42530;52.240;19.354;2022-11-18T03:43:40;31.80;;;28.50;;
56657;SDS011;42530;52.240;19.354;2022-11-18T03:46:15;27.75;;;24.88;;
56657;SDS011;42530;52.240;19.354;2022-11-18T03:48:52;29.65;;;24.17;;
56657;SDS011;42530;52.240;19.354;2022-11-18T03:51:21;28.05;;;24.35;;
56657;SDS011;42530;52.240;19.354;2022-11-18T03:53:51;31.85;;;26.60;;
56657;SDS011;42530;52.240;19.354;2022-11-18T03:56:31;35.38;;;29.60;;
56657;SDS011;42530;52.240;19.354;2022-11-18T03:59:24;32.15;;;28.00;;
56657;SDS011;42530;52.240;19.354;2022-11-18T04:01:52;34.80;;;27.85;;
56657;SDS011;42530;52.240;19.354;2022-11-18T04:04:23;34.78;;;28.27;;
56657;SDS011;42530;52.240;19.354;2022-11-18T04:06:54;31.90;;;26.45;;
56657;SDS011;42530;52.240;19.354;2022-11-18T04:09:42;29.60;;;26.33;;
56657;SDS011;42530;52.240;19.354;2022-11-18T04:12:12;31.80;;;27.88;;
56657;SDS011;42530;52.240;19.354;2022-11-18T04:14:41;34.00;;;27.48;;
56657;SDS011;42530;52.240;19.354;2022-11-18T04:17:12;29.80;;;25.73;;
56657;SDS011;42530;52.240;19.354;2022-11-18T04:19:40;33.47;;;27.92;;
56657;SDS011;42530;52.240;19.354;2022-11-18T04:22:06;29.50;;;26.08;;
56657;SDS011;42530;52.240;19.354;2022-11-18T04:24:34;31.55;;;26.77;;
56657;SDS011;42530;52.240;19.354;2022-11-18T04:27:00;29.95;;;24.38;;
56657;SDS011;42530;52.240;19.354;2022-11-18T04:29:27;28.80;;;25.80;;
56657;SDS011;42530;52.240;19.354;2022-11-18T04:31:53;30.02;;;25.83;;
56657;SDS011;42530;52.240;19.354;2022-11-18T04:34:18;29.50;;;26.38;;
56657;SDS011;42530;52.240;19.354;2022-11-18T04:36:44;28.60;;;23.73;;
56657;SDS011;42530;52.240;19.354;2022-11-18T04:39:09;29.42;;;24.80;;
56657;SDS011;42530;52.240;19.354;2022-11-18T04:41:35;25.45;;;22.52;;
56657;SDS011;42530;52.240;19.354;2022-11-18T04:44:20;24.95;;;21.88;;
56657;SDS011;42530;52.240;19.354;2022-11-18T04:46:57;24.50;;;21.85;;
56657;SDS011;42530;52.240;19.354;2022-11-18T04:49:23;25.60;;;22.52;;
56657;SDS011;42530;52.240;19.354;2022-11-18T04:51:50;30.05;;;24.98;;
56657;SDS011;42530;52.240;19.354;2022-11-18T04:54:16;30.67;;;24.33;;
56657;SDS011;42530;52.240;19.354;2022-11-18T04:56:43;27.40;;;22.50;;
56657;SDS011;42530;52.240;19.354;2022-11-18T04:59:09;24.50;;;21.60;;
56657;SDS011;42530;52.240;19.354;2022-11-18T05:01:36;24.55;;;22.05;;
56657;SDS011;42530;52.240;19.354;2022-11-18T05:04:02;25.88;;;23.15;;
56657;SDS011;42530;52.240;19.354;2022-11-18T05:06:29;28.45;;;23.27;;
56657;SDS011;42530;52.240;19.354;2022-11-18T05:08:59;25.10;;;21.55;;
56657;SDS011;42530;52.240;19.354;2022-11-18T05:11:26;26.40;;;23.60;;
56657;SDS011;42530;52.240;19.354;2022-11-18T05:14:10;28.10;;;24.53;;
56657;SDS011;42530;52.240;19.354;2022-11-18T05:16:36;25.33;;;21.98;;
56657;SDS011;42530;52.240;19.354;2022-11-18T05:19:02;24.33;;;21.20;;
56657;SDS011;42530;52.240;19.354;2022-11-18T05:21:29;20.15;;;18.05;;
56657;SDS011;42530;52.240;19.354;2022-11-18T05:23:55;19.27;;;16.55;;
56657;SDS011;42530;52.240;19.354;2022-11-18T05:26:20;18.80;;;16.85;;
56657;SDS011;42530;52.240;19.354;2022-11-18T05:28:46;17.88;;;15.80;;
56657;SDS011;42530;52.240;19.354;2022-11-18T05:31:12;17.02;;;14.98;;
56657;SDS011;42530;52.240;19.354;2022-11-18T05:33:39;16.08;;;14.55;;
56657;SDS011;42530;52.240;19.354;2022-11-18T05:36:06;14.32;;;12.80;;
56657;SDS011;42530;52.240;19.354;2022-11-18T05:38:34;15.70;;;14.27;;
56657;SDS011;42530;52.240;19.354;2022-11-18T05:41:00;14.75;;;12.05;;
56657;SDS011;42530;52.240;19.354;2022-11-18T05:43:26;14.30;;;12.85;;
56657;SDS011;42530;52.240;19.354;2022-11-18T05:45:53;11.93;;;10.93;;
56657;SDS011;42530;52.240;19.354;2022-11-18T05:48:19;11.88;;;10.80;;
56657;SDS011;42530;52.240;19.354;2022-11-18T05:50:47;9.73;;;8.93;;
56657;SDS011;42530;52.240;19.354;2022-11-18T05:53:15;13.02;;;11.63;;
56657;SDS011;42530;52.240;19.354;2022-11-18T05:58:27;11.40;;;10.40;;
56657;SDS011;42530;52.240;19.354;2022-11-18T06:00:54;10.75;;;9.65;;
56657;SDS011;42530;52.240;19.354;2022-11-18T06:03:26;11.55;;;10.52;;
56657;SDS011;42530;52.240;19.354;2022-11-18T06:05:55;11.35;;;10.32;;
56657;SDS011;42530;52.240;19.354;2022-11-18T06:08:23;12.75;;;11.57;;
56657;SDS011;42530;52.240;19.354;2022-11-18T06:10:50;12.43;;;11.35;;
56657;SDS011;42530;52.240;19.354;2022-11-18T06:13:24;10.20;;;9.05;;
56657;SDS011;42530;52.240;19.354;2022-11-18T06:15:55;11.38;;;10.40;;
56657;SDS011;42530;52.240;19.354;2022-11-18T06:18:22;11.65;;;10.45;;
56657;SDS011;42530;52.240;19.354;2022-11-18T06:20:51;14.20;;;10.32;;
56657;SDS011;42530;52.240;19.354;2022-11-18T06:23:19;11.15;;;9.32;;
56657;SDS011;42530;52.240;19.354;2022-11-18T06:25:45;10.63;;;9.30;;
56657;SDS011;42530;52.240;19.354;2022-11-18T06:28:12;9.68;;;8.80;;
56657;SDS011;42530;52.240;19.354;2022-11-18T06:30:39;8.50;;;7.78;;
56657;SDS011;42530;52.240;19.354;2022-11-18T06:33:05;8.80;;;8.10;;
56657;SDS011;42530;52.240;19.354;2022-11-18T06:35:30;8.88;;;8.18;;
56657;SDS011;42530;52.240;19.354;2022-11-18T06:37:56;9.02;;;8.00;;
56657;SDS011;42530;52.240;19.354;2022-11-18T06:40:22;8.68;;;7.88;;
56657;SDS011;42530;52.240;19.354;2022-11-18T06:42:47;8.32;;;7.63;;
56657;SDS011;42530;52.240;19.354;2022-11-18T06:45:31;8.27;;;7.50;;
56657;SDS011;42530;52.240;19.354;2022-11-18T06:47:57;10.57;;;9.48;;
56657;SDS011;42530;52.240;19.354;2022-11-18T06:50:25;9.55;;;8.82;;
56657;SDS011;42530;52.240;19.354;2022-11-18T06:52:53;8.63;;;7.88;;
56657;SDS011;42530;52.240;19.354;2022-11-18T06:55:18;9.00;;;8.15;;
56657;SDS011;42530;52.240;19.354;2022-11-18T06:57:44;10.18;;;9.13;;
56657;SDS011;42530;52.240;19.354;2022-11-18T07:00:10;9.60;;;8.70;;
56657;SDS011;42530;52.240;19.354;2022-11-18T07:02:36;8.73;;;7.72;;
56657;SDS011;42530;52.240;19.354;2022-11-18T07:05:02;9.90;;;9.00;;
56657;SDS011;42530;52.240;19.354;2022-11-18T07:07:33;8.18;;;7.50;;
56657;SDS011;42530;52.240;19.354;2022-11-18T07:09:59;9.98;;;9.18;;
56657;SDS011;42530;52.240;19.354;2022-11-18T07:12:25;10.75;;;9.77;;
56657;SDS011;42530;52.240;19.354;2022-11-18T07:14:50;10.43;;;9.32;;
56657;SDS011;42530;52.240;19.354;2022-11-18T07:17:16;10.48;;;9.38;;
56657;SDS011;42530;52.240;19.354;2022-11-18T07:19:41;9.35;;;8.45;;
56657;SDS011;42530;52.240;19.354;2022-11-18T07:22:07;9.38;;;8.48;;
56657;SDS011;42530;52.240;19.354;2022-11-18T07:24:32;10.27;;;8.93;;
56657;SDS011;42530;52.240;19.354;2022-11-18T07:26:58;7.88;;;7.25;;
56657;SDS011;42530;52.240;19.354;2022-11-18T07:29:24;7.90;;;7.18;;
56657;SDS011;42530;52.240;19.354;2022-11-18T07:31:49;8.10;;;7.47;;
56657;SDS011;42530;52.240;19.354;2022-11-18T07:34:15;8.40;;;7.63;;
56657;SDS011;42530;52.240;19.354;2022-11-18T07:36:40;7.40;;;6.90;;
56657;SDS011;42530;52.240;19.354;2022-11-18T07:39:06;8.20;;;7.50;;
56657;SDS011;42530;52.240;19.354;2022-11-18T07:41:32;9.05;;;8.25;;
56657;SDS011;42530;52.240;19.354;2022-11-18T07:43:59;7.57;;;6.97;;
56657;SDS011;42530;52.240;19.354;2022-11-18T07:48:53;7.05;;;6.45;;
56657;SDS011;42530;52.240;19.354;2022-11-18T07:51:21;7.05;;;6.20;;
56657;SDS011;42530;52.240;19.354;2022-11-18T07:53:48;6.15;;;5.65;;
56657;SDS011;42530;52.240;19.354;2022-11-18T07:56:15;6.20;;;5.75;;
56657;SDS011;42530;52.240;19.354;2022-11-18T07:58:41;7.55;;;6.68;;
56657;SDS011;42530;52.240;19.354;2022-11-18T08:01:13;7.15;;;6.55;;
56657;SDS011;42530;52.240;19.354;2022-11-18T08:03:43;5.93;;;5.43;;
56657;SDS011;42530;52.240;19.354;2022-11-18T08:06:10;8.13;;;7.25;;
56657;SDS011;42530;52.240;19.354;2022-11-18T08:08:37;7.15;;;6.65;;
56657;SDS011;42530;52.240;19.354;2022-11-18T08:11:04;7.65;;;6.93;;
56657;SDS011;42530;52.240;19.354;2022-11-18T08:13:31;6.93;;;6.15;;
56657;SDS011;42530;52.240;19.354;2022-11-18T08:15:57;8.30;;;7.60;;
56657;SDS011;42530;52.240;19.354;2022-11-18T08:18:23;7.32;;;6.72;;
56657;SDS011;42530;52.240;19.354;2022-11-18T08:20:49;9.45;;;8.73;;
56657;SDS011;42530;52.240;19.354;2022-11-18T08:23:15;8.70;;;7.80;;
56657;SDS011;42530;52.240;19.354;2022-11-18T08:25:41;9.80;;;8.90;;
56657;SDS011;42530;52.240;19.354;2022-11-18T08:28:09;8.95;;;8.15;;
56657;SDS011;42530;52.240;19.354;2022-11-18T08:30:36;9.63;;;8.67;;
56657;SDS011;42530;52.240;19.354;2022-11-18T08:33:02;12.43;;;11.00;;
56657;SDS011;42530;52.240;19.354;2022-11-18T08:35:28;10.48;;;9.65;;
56657;SDS011;42530;52.240;19.354;2022-11-18T08:37:54;12.23;;;10.98;;
56657;SDS011;42530;52.240;19.354;2022-11-18T08:40:20;10.77;;;9.90;;
56657;SDS011;42530;52.240;19.354;2022-11-18T08:42:46;9.20;;;8.50;;
56657;SDS011;42530;52.240;19.354;2022-11-18T08:45:11;9.27;;;8.48;;
56657;SDS011;42530;52.240;19.354;2022-11-18T08:47:37;9.15;;;8.25;;
56657;SDS011;42530;52.240;19.354;2022-11-18T08:50:04;9.40;;;8.40;;
56657;SDS011;42530;52.240;19.354;2022-11-18T08:52:31;11.43;;;9.38;;
56657;SDS011;42530;52.240;19.354;2022-11-18T08:54:56;11.00;;;9.15;;
56657;SDS011;42530;52.240;19.354;2022-11-18T08:57:22;10.18;;;9.18;;
56657;SDS011;42530;52.240;19.354;2022-11-18T08:59:48;9.48;;;8.55;;
56657;SDS011;42530;52.240;19.354;2022-11-18T09:02:17;10.27;;;9.27;;
56657;SDS011;42530;52.240;19.354;2022-11-18T09:04:48;10.52;;;9.48;;
56657;SDS011;42530;52.240;19.354;2022-11-18T09:07:17;11.60;;;10.40;;
56657;SDS011;42530;52.240;19.354;2022-11-18T09:09:43;11.82;;;10.65;;
56657;SDS011;42530;52.240;19.354;2022-11-18T09:12:09;10.75;;;9.73;;
56657;SDS011;42530;52.240;19.354;2022-11-18T09:14:40;11.23;;;10.23;;
56657;SDS011;42530;52.240;19.354;2022-11-18T09:17:06;10.25;;;9.38;;
56657;SDS011;42530;52.240;19.354;2022-11-18T09:19:33;11.25;;;10.35;;
56657;SDS011;42530;52.240;19.354;2022-11-18T09:21:58;12.65;;;11.27;;
56657;SDS011;42530;52.240;19.354;2022-11-18T09:24:23;11.35;;;10.25;;
56657;SDS011;42530;52.240;19.354;2022-11-18T09:26:49;9.90;;;9.00;;
56657;SDS011;42530;52.240;19.354;2022-11-18T09:29:15;13.82;;;12.48;;
56657;SDS011;42530;52.240;19.354;2022-11-18T09:31:41;11.38;;;9.93;;
56657;SDS011;42530;52.240;19.354;2022-11-18T09:34:06;8.77;;;7.82;;
56657;SDS011;42530;52.240;19.354;2022-11-18T09:36:34;8.20;;;7.47;;
56657;SDS011;42530;52.240;19.354;2022-11-18T09:38:59;10.35;;;9.40;;
56657;SDS011;42530;52.240;19.354;2022-11-18T09:41:43;8.40;;;7.72;;
56657;SDS011;42530;52.240;19.354;2022-11-18T09:49:53;10.02;;;9.13;;
56657;SDS011;42530;52.240;19.354;2022-11-18T09:52:21;8.82;;;8.07;;
56657;SDS011;42530;52.240;19.354;2022-11-18T09:54:51;8.18;;;7.40;;
56657;SDS011;42530;52.240;19.354;2022-11-18T09:57:18;9.85;;;9.05;;
56657;SDS011;42530;52.240;19.354;2022-11-18T09:59:48;10.65;;;9.68;;
56657;SDS011;42530;52.240;19.354;2022-11-18T10:02:22;9.30;;;8.45;;
56657;SDS011;42530;52.240;19.354;2022-11-18T10:04:53;11.40;;;10.32;;
56657;SDS011;42530;52.240;19.354;2022-11-18T10:07:24;13.70;;;9.10;;
56657;SDS011;42530;52.240;19.354;2022-11-18T10:10:00;9.07;;;8.35;;
56657;SDS011;42530;52.240;19.354;2022-11-18T10:12:37;7.97;;;7.38;;
56657;SDS011;42530;52.240;19.354;2022-11-18T10:23:49;8.90;;;7.78;;
56657;SDS011;42530;52.240;19.354;2022-11-18T10:26:32;8.40;;;7.70;;
56657;SDS011;42530;52.240;19.354;2022-11-18T10:29:03;7.85;;;7.22;;
56657;SDS011;42530;52.240;19.354;2022-11-18T10:31:37;9.35;;;8.55;;
56657;SDS011;42530;52.240;19.354;2022-11-18T10:34:04;9.88;;;8.85;;
56657;SDS011;42530;52.240;19.354;2022-11-18T10:36:31;7.97;;;6.95;;
56657;SDS011;42530;52.240;19.354;2022-11-18T10:39:09;9.98;;;8.90;;
56657;SDS011;42530;52.240;19.354;2022-11-18T10:41:44;10.02;;;9.00;;
56657;SDS011;42530;52.240;19.354;2022-11-18T10:49:43;12.13;;;11.13;;
56657;SDS011;42530;52.240;19.354;2022-11-18T10:52:12;10.70;;;9.70;;
56657;SDS011;42530;52.240;19.354;2022-11-18T10:54:39;11.73;;;10.52;;
56657;SDS011;42530;52.240;19.354;2022-11-18T10:57:06;12.93;;;11.73;;
56657;SDS011;42530;52.240;19.354;2022-11-18T11:02:16;9.82;;;9.10;;
56657;SDS011;42530;52.240;19.354;2022-11-18T11:04:45;11.52;;;10.38;;
56657;SDS011;42530;52.240;19.354;2022-11-18T11:07:33;11.05;;;9.95;;
56657;SDS011;42530;52.240;19.354;2022-11-18T11:10:18;12.05;;;10.02;;
56657;SDS011;42530;52.240;19.354;2022-11-18T11:13:09;11.55;;;9.77;;
56657;SDS011;42530;52.240;19.354;2022-11-18T11:15:41;11.75;;;10.65;;
56657;SDS011;42530;52.240;19.354;2022-11-18T11:20:58;11.05;;;10.02;;
56657;SDS011;42530;52.240;19.354;2022-11-18T11:23:24;10.93;;;9.93;;
56657;SDS011;42530;52.240;19.354;2022-11-18T11:25:52;12.23;;;11.00;;
56657;SDS011;42530;52.240;19.354;2022-11-18T11:41:58;12.20;;;10.25;;
56657;SDS011;42530;52.240;19.354;2022-11-18T11:44:34;11.88;;;10.77;;
56657;SDS011;42530;52.240;19.354;2022-11-18T11:50:28;9.00;;;8.27;;
56657;SDS011;42530;52.240;19.354;2022-11-18T11:55:46;12.18;;;11.18;;
56657;SDS011;42530;52.240;19.354;2022-11-18T12:07:02;9.95;;;9.13;;
56657;SDS011;42530;52.240;19.354;2022-11-18T12:12:11;9.98;;;8.98;;
56657;SDS011;42530;52.240;19.354;2022-11-18T12:15:16;11.10;;;8.33;;
56657;SDS011;42530;52.240;19.354;2022-11-18T12:17:55;9.98;;;8.98;;
56657;SDS011;42530;52.240;19.354;2022-11-18T12:23:27;14.55;;;10.38;;
56657;SDS011;42530;52.240;19.354;2022-11-18T12:26:02;12.18;;;10.93;;
56657;SDS011;42530;52.240;19.354;2022-11-18T12:28:34;14.32;;;12.82;;
56657;SDS011;42530;52.240;19.354;2022-11-18T12:33:43;9.85;;;8.85;;
56657;SDS011;42530;52.240;19.354;2022-11-18T12:36:08;8.95;;;8.05;;
56657;SDS011;42530;52.240;19.354;2022-11-18T12:38:34;9.70;;;8.65;;
56657;SDS011;42530;52.240;19.354;2022-11-18T12:40:59;9.30;;;8.50;;
56657;SDS011;42530;52.240;19.354;2022-11-18T12:48:51;6.32;;;5.82;;
56657;SDS011;42530;52.240;19.354;2022-11-18T12:58:50;6.78;;;6.10;;
56657;SDS011;42530;52.240;19.354;2022-11-18T13:01:18;6.43;;;5.82;;
56657;SDS011;42530;52.240;19.354;2022-11-18T13:03:46;7.20;;;6.60;;
56657;SDS011;42530;52.240;19.354;2022-11-18T13:08:56;7.10;;;6.50;;
56657;SDS011;42530;52.240;19.354;2022-11-18T13:11:25;7.18;;;6.57;;
56657;SDS011;42530;52.240;19.354;2022-11-18T13:14:12;6.07;;;5.47;;
56657;SDS011;42530;52.240;19.354;2022-11-18T13:16:58;8.38;;;7.30;;
56657;SDS011;42530;52.240;19.354;2022-11-18T13:19:52;8.15;;;7.40;;
56657;SDS011;42530;52.240;19.354;2022-11-18T13:22:20;8.60;;;8.00;;
56657;SDS011;42530;52.240;19.354;2022-11-18T13:25:05;8.13;;;7.32;;
56657;SDS011;42530;52.240;19.354;2022-11-18T13:27:54;8.88;;;8.02;;
56657;SDS011;42530;52.240;19.354;2022-11-18T13:30:31;8.38;;;7.72;;
56657;SDS011;42530;52.240;19.354;2022-11-18T13:33:00;9.18;;;8.38;;
56657;SDS011;42530;52.240;19.354;2022-11-18T13:35:26;9.55;;;8.70;;
56657;SDS011;42530;52.240;19.354;2022-11-18T13:37:54;8.65;;;7.95;;
56657;SDS011;42530;52.240;19.354;2022-11-18T13:40:27;9.30;;;8.50;;
56657;SDS011;42530;52.240;19.354;2022-11-18T13:42:53;10.38;;;9.48;;
56657;SDS011;42530;52.240;19.354;2022-11-18T13:45:19;9.20;;;8.32;;
56657;SDS011;42530;52.240;19.354;2022-11-18T13:47:58;10.32;;;9.32;;
56657;SDS011;42530;52.240;19.354;2022-11-18T13:50:38;9.95;;;8.98;;
56657;SDS011;42530;52.240;19.354;2022-11-18T13:55:50;9.35;;;8.40;;
56657;SDS011;42530;52.240;19.354;2022-11-18T13:58:31;11.45;;;10.23;;
56657;SDS011;42530;52.240;19.354;2022-11-18T14:01:05;10.20;;;8.85;;
56657;SDS011;42530;52.240;19.354;2022-11-18T14:03:45;11.07;;;9.95;;
56657;SDS011;42530;52.240;19.354;2022-11-18T14:12:00;10.90;;;9.75;;
56657;SDS011;42530;52.240;19.354;2022-11-18T14:14:34;11.60;;;9.25;;
56657;SDS011;42530;52.240;19.354;2022-11-18T14:17:14;10.82;;;9.93;;
56657;SDS011;42530;52.240;19.354;2022-11-18T14:19:43;13.10;;;10.88;;
56657;SDS011;42530;52.240;19.354;2022-11-18T14:22:18;15.75;;;11.02;;
56657;SDS011;42530;52.240;19.354;2022-11-18T14:29:53;9.52;;;8.73;;
56657;SDS011;42530;52.240;19.354;2022-11-18T14:32:18;12.55;;;10.20;;
56657;SDS011;42530;52.240;19.354;2022-11-18T14:34:55;15.18;;;13.55;;
56657;SDS011;42530;52.240;19.354;2022-11-18T14:37:24;12.05;;;10.95;;
56657;SDS011;42530;52.240;19.354;2022-11-18T14:39:54;12.68;;;10.75;;
56657;SDS011;42530;52.240;19.354;2022-11-18T14:42:21;15.10;;;11.63;;
56657;SDS011;42530;52.240;19.354;2022-11-18T14:44:48;13.25;;;11.80;;
56657;SDS011;42530;52.240;19.354;2022-11-18T14:47:47;13.88;;;12.52;;
56657;SDS011;42530;52.240;19.354;2022-11-18T14:50:12;15.20;;;13.07;;
56657;SDS011;42530;52.240;19.354;2022-11-18T14:52:38;18.15;;;16.25;;
56657;SDS011;42530;52.240;19.354;2022-11-18T14:55:04;13.55;;;12.23;;
56657;SDS011;42530;52.240;19.354;2022-11-18T14:57:31;12.73;;;11.55;;
56657;SDS011;42530;52.240;19.354;2022-11-18T14:59:56;13.30;;;11.95;;
56657;SDS011;42530;52.240;19.354;2022-11-18T15:02:22;11.75;;;10.60;;
56657;SDS011;42530;52.240;19.354;2022-11-18T15:04:47;11.82;;;10.48;;
56657;SDS011;42530;52.240;19.354;2022-11-18T15:07:15;12.25;;;11.07;;
56657;SDS011;42530;52.240;19.354;2022-11-18T15:09:40;12.23;;;10.60;;
56657;SDS011;42530;52.240;19.354;2022-11-18T15:12:06;15.38;;;13.23;;
56657;SDS011;42530;52.240;19.354;2022-11-18T15:14:32;14.63;;;12.38;;
56657;SDS011;42530;52.240;19.354;2022-11-18T15:16:59;17.25;;;14.82;;
56657;SDS011;42530;52.240;19.354;2022-11-18T15:19:24;17.17;;;14.05;;
56657;SDS011;42530;52.240;19.354;2022-11-18T15:21:50;15.27;;;13.88;;
56657;SDS011;42530;52.240;19.354;2022-11-18T15:24:15;14.82;;;13.30;;
56657;SDS011;42530;52.240;19.354;2022-11-18T15:26:42;15.73;;;12.15;;
56657;SDS011;42530;52.240;19.354;2022-11-18T15:29:27;12.93;;;11.52;;
56657;SDS011;42530;52.240;19.354;2022-11-18T15:31:52;13.02;;;11.82;;
56657;SDS011;42530;52.240;19.354;2022-11-18T15:34:18;15.50;;;12.52;;
56657;SDS011;42530;52.240;19.354;2022-11-18T15:36:44;15.35;;;13.57;;
56657;SDS011;42530;52.240;19.354;2022-11-18T15:39:10;13.25;;;10.77;;
56657;SDS011;42530;52.240;19.354;2022-11-18T15:41:37;14.85;;;13.40;;
56657;SDS011;42530;52.240;19.354;2022-11-18T15:44:04;18.00;;;16.20;;
56657;SDS011;42530;52.240;19.354;2022-11-18T15:46:30;23.45;;;21.02;;
56657;SDS011;42530;52.240;19.354;2022-11-18T15:48:57;21.92;;;19.52;;
56657;SDS011;42530;52.240;19.354;2022-11-18T15:51:24;16.50;;;14.90;;
56657;SDS011;42530;52.240;19.354;2022-11-18T15:53:50;15.95;;;14.25;;
56657;SDS011;42530;52.240;19.354;2022-11-18T15:58:55;12.63;;;11.25;;
56657;SDS011;42530;52.240;19.354;2022-11-18T16:01:29;13.27;;;12.07;;
56657;SDS011;42530;52.240;19.354;2022-11-18T16:03:57;13.95;;;12.55;;
56657;SDS011;42530;52.240;19.354;2022-11-18T16:06:23;13.45;;;12.15;;
56657;SDS011;42530;52.240;19.354;2022-11-18T16:12:10;13.02;;;11.75;;
56657;SDS011;42530;52.240;19.354;2022-11-18T16:18:16;14.23;;;12.93;;
56657;SDS011;42530;52.240;19.354;2022-11-18T16:24:06;15.18;;;13.65;;
56657;SDS011;42530;52.240;19.354;2022-11-18T16:29:54;13.07;;;11.77;;
56657;SDS011;42530;52.240;19.354;2022-11-18T16:35:45;12.57;;;11.50;;
56657;SDS011;42530;52.240;19.354;2022-11-18T16:38:11;13.02;;;11.93;;
56657;SDS011;42530;52.240;19.354;2022-11-18T16:40:37;13.65;;;12.32;;
56657;SDS011;42530;52.240;19.354;2022-11-18T16:43:02;13.30;;;11.95;;
56657;SDS011;42530;52.240;19.354;2022-11-18T16:45:28;15.88;;;12.98;;
56657;SDS011;42530;52.240;19.354;2022-11-18T16:47:53;14.10;;;12.75;;
56657;SDS011;42530;52.240;19.354;2022-11-18T16:50:19;12.60;;;11.50;;
56657;SDS011;42530;52.240;19.354;2022-11-18T16:52:44;11.75;;;10.75;;
56657;SDS011;42530;52.240;19.354;2022-11-18T16:55:10;13.40;;;12.18;;
56657;SDS011;42530;52.240;19.354;2022-11-18T16:57:35;11.93;;;10.88;;
56657;SDS011;42530;52.240;19.354;2022-11-18T17:00:01;14.00;;;11.98;;
56657;SDS011;42530;52.240;19.354;2022-11-18T17:02:28;13.18;;;11.95;;
56657;SDS011;42530;52.240;19.354;2022-11-18T17:04:53;11.90;;;10.73;;
56657;SDS011;42530;52.240;19.354;2022-11-18T17:07:19;13.48;;;12.13;;
56657;SDS011;42530;52.240;19.354;2022-11-18T17:09:46;13.60;;;12.20;;